sensor_id;sensor_type;location;lat;lon;timestamp;P1;durP1;ratioP1;P2;durP2;ratioP2
5823;SDS011;2938;52.254;12.988;2023-08-01T00:01:57;10.93;;;4.50;;
5823;SDS011;2938;52.254;12.988;2023-08-01T00:04:25;5.10;;;3.55;;
5823;SDS011;2938;52.254;12.988;2023-08-01T00:06:50;7.60;;;4.00;;
5823;SDS011;2938;52.254;12.988;2023-08-01T00:09:18;7.45;;;5.00;;
5823;SDS011;2938;52.254;12.988;2023-08-01T00:11:44;5.78;;;3.35;;
5823;SDS011;2938;52.254;12.988;2023-08-01T00:14:11;6.90;;;4.40;;
5823;SDS011;2938;52.254;12.988;2023-08-01T00:16:37;7.30;;;4.57;;
5823;SDS011;2938;52.254;12.988;2023-08-01T00:19:02;11.85;;;4.63;;
5823;SDS011;2938;52.254;12.988;2023-08-01T00:21:27;7.90;;;3.92;;
5823;SDS011;2938;52.254;12.988;2023-08-01T00:24:03;6.65;;;4.50;;
5823;SDS011;2938;52.254;12.988;2023-08-01T01:38:30;8.38;;;6.10;;
5823;SDS011;2938;52.254;12.988;2023-08-01T01:41:13;9.65;;;6.57;;
5823;SDS011;2938;52.254;12.988;2023-08-01T01:43:54;9.93;;;5.95;;
5823;SDS011;2938;52.254;12.988;2023-08-01T01:46:22;12.52;;;6.60;;
5823;SDS011;2938;52.254;12.988;2023-08-01T03:27:24;9.07;;;5.65;;
5823;SDS011;2938;52.254;12.988;2023-08-01T03:41:25;8.25;;;5.93;;
5823;SDS011;2938;52.254;12.988;2023-08-01T03:43:52;13.43;;;5.55;;
5823;SDS011;2938;52.254;12.988;2023-08-01T03:49:32;12.00;;;5.35;;
5823;SDS011;2938;52.254;12.988;2023-08-01T03:52:07;6.10;;;5.05;;
5823;SDS011;2938;52.254;12.988;2023-08-01T03:55:16;6.53;;;4.38;;
5823;SDS011;2938;52.254;12.988;2023-08-01T04:31:21;6.05;;;4.72;;
5823;SDS011;2938;52.254;12.988;2023-08-01T04:36:19;6.40;;;4.80;;
5823;SDS011;2938;52.254;12.988;2023-08-01T04:38:53;10.68;;;5.13;;
5823;SDS011;2938;52.254;12.988;2023-08-01T04:44:43;15.63;;;4.67;;
5823;SDS011;2938;52.254;12.988;2023-08-01T04:47:29;7.15;;;4.72;;
5823;SDS011;2938;52.254;12.988;2023-08-01T04:50:24;10.82;;;5.15;;
5823;SDS011;2938;52.254;12.988;2023-08-01T04:53:14;7.50;;;4.27;;
5823;SDS011;2938;52.254;12.988;2023-08-01T05:06:08;5.38;;;4.70;;
5823;SDS011;2938;52.254;12.988;2023-08-01T05:08:33;11.55;;;5.55;;
5823;SDS011;2938;52.254;12.988;2023-08-01T05:24:37;10.05;;;5.90;;
5823;SDS011;2938;52.254;12.988;2023-08-01T05:27:59;4.13;;;3.72;;
5823;SDS011;2938;52.254;12.988;2023-08-01T05:30:47;7.22;;;5.38;;
5823;SDS011;2938;52.254;12.988;2023-08-01T05:42:47;9.75;;;4.85;;
5823;SDS011;2938;52.254;12.988;2023-08-01T05:48:34;5.82;;;4.95;;
5823;SDS011;2938;52.254;12.988;2023-08-01T05:51:20;8.82;;;4.75;;
5823;SDS011;2938;52.254;12.988;2023-08-01T05:53:53;8.57;;;4.50;;
5823;SDS011;2938;52.254;12.988;2023-08-01T05:56:21;9.10;;;4.70;;
5823;SDS011;2938;52.254;12.988;2023-08-01T05:58:54;7.55;;;4.32;;
5823;SDS011;2938;52.254;12.988;2023-08-01T06:01:19;10.00;;;4.32;;
5823;SDS011;2938;52.254;12.988;2023-08-01T06:03:47;6.30;;;4.15;;
5823;SDS011;2938;52.254;12.988;2023-08-01T06:06:14;4.75;;;4.00;;
5823;SDS011;2938;52.254;12.988;2023-08-01T06:08:40;9.88;;;4.15;;
5823;SDS011;2938;52.254;12.988;2023-08-01T06:11:05;6.88;;;4.40;;
5823;SDS011;2938;52.254;12.988;2023-08-01T06:13:30;9.23;;;4.15;;
5823;SDS011;2938;52.254;12.988;2023-08-01T06:15:56;6.80;;;3.95;;
5823;SDS011;2938;52.254;12.988;2023-08-01T06:18:21;4.18;;;3.67;;
5823;SDS011;2938;52.254;12.988;2023-08-01T06:20:47;6.43;;;5.03;;
5823;SDS011;2938;52.254;12.988;2023-08-01T06:23:12;6.65;;;4.32;;
5823;SDS011;2938;52.254;12.988;2023-08-01T06:25:37;7.53;;;4.00;;
5823;SDS011;2938;52.254;12.988;2023-08-01T06:28:03;6.25;;;3.63;;
5823;SDS011;2938;52.254;12.988;2023-08-01T06:30:28;6.25;;;3.75;;
5823;SDS011;2938;52.254;12.988;2023-08-01T06:32:53;6.95;;;3.53;;
5823;SDS011;2938;52.254;12.988;2023-08-01T06:35:19;4.60;;;3.80;;
5823;SDS011;2938;52.254;12.988;2023-08-01T06:37:46;9.60;;;4.43;;
5823;SDS011;2938;52.254;12.988;2023-08-01T06:40:11;12.10;;;4.00;;
5823;SDS011;2938;52.254;12.988;2023-08-01T06:42:37;5.05;;;4.10;;
5823;SDS011;2938;52.254;12.988;2023-08-01T06:45:02;5.50;;;4.00;;
5823;SDS011;2938;52.254;12.988;2023-08-01T06:47:27;9.43;;;5.05;;
5823;SDS011;2938;52.254;12.988;2023-08-01T06:49:53;7.07;;;4.43;;
5823;SDS011;2938;52.254;12.988;2023-08-01T06:52:18;6.22;;;4.20;;
5823;SDS011;2938;52.254;12.988;2023-08-01T06:54:46;5.03;;;4.05;;
5823;SDS011;2938;52.254;12.988;2023-08-01T06:57:12;5.78;;;3.53;;
5823;SDS011;2938;52.254;12.988;2023-08-01T06:59:37;4.75;;;4.18;;
5823;SDS011;2938;52.254;12.988;2023-08-01T07:02:02;7.28;;;3.78;;
5823;SDS011;2938;52.254;12.988;2023-08-01T07:04:28;3.72;;;2.83;;
5823;SDS011;2938;52.254;12.988;2023-08-01T07:06:53;6.50;;;3.97;;
5823;SDS011;2938;52.254;12.988;2023-08-01T07:09:19;5.53;;;3.38;;
5823;SDS011;2938;52.254;12.988;2023-08-01T07:11:44;4.05;;;3.53;;
5823;SDS011;2938;52.254;12.988;2023-08-01T07:14:09;8.70;;;3.50;;
5823;SDS011;2938;52.254;12.988;2023-08-01T07:16:35;4.80;;;3.35;;
5823;SDS011;2938;52.254;12.988;2023-08-01T07:19:00;4.70;;;3.58;;
5823;SDS011;2938;52.254;12.988;2023-08-01T07:21:31;7.23;;;3.07;;
5823;SDS011;2938;52.254;12.988;2023-08-01T07:23:59;4.57;;;2.83;;
5823;SDS011;2938;52.254;12.988;2023-08-01T07:26:24;6.05;;;3.40;;
5823;SDS011;2938;52.254;12.988;2023-08-01T07:28:50;5.20;;;2.70;;
5823;SDS011;2938;52.254;12.988;2023-08-01T07:31:18;3.97;;;2.95;;
5823;SDS011;2938;52.254;12.988;2023-08-01T07:34:04;6.53;;;3.03;;
5823;SDS011;2938;52.254;12.988;2023-08-01T07:36:32;3.88;;;2.50;;
5823;SDS011;2938;52.254;12.988;2023-08-01T07:39:00;3.60;;;2.30;;
5823;SDS011;2938;52.254;12.988;2023-08-01T07:41:28;3.13;;;2.53;;
5823;SDS011;2938;52.254;12.988;2023-08-01T07:47:26;2.20;;;1.92;;
5823;SDS011;2938;52.254;12.988;2023-08-01T07:49:57;4.28;;;1.95;;
5823;SDS011;2938;52.254;12.988;2023-08-01T07:52:24;5.38;;;2.03;;
5823;SDS011;2938;52.254;12.988;2023-08-01T07:54:50;5.90;;;2.15;;
5823;SDS011;2938;52.254;12.988;2023-08-01T07:57:18;1.80;;;1.70;;
5823;SDS011;2938;52.254;12.988;2023-08-01T07:59:45;5.72;;;2.08;;
5823;SDS011;2938;52.254;12.988;2023-08-01T08:02:18;2.00;;;1.63;;
5823;SDS011;2938;52.254;12.988;2023-08-01T08:04:46;5.45;;;2.10;;
5823;SDS011;2938;52.254;12.988;2023-08-01T08:07:11;2.10;;;1.65;;
5823;SDS011;2938;52.254;12.988;2023-08-01T08:09:37;1.75;;;1.65;;
5823;SDS011;2938;52.254;12.988;2023-08-01T08:12:07;2.28;;;1.63;;
5823;SDS011;2938;52.254;12.988;2023-08-01T08:14:33;7.28;;;1.95;;
5823;SDS011;2938;52.254;12.988;2023-08-01T08:17:11;4.80;;;1.58;;
5823;SDS011;2938;52.254;12.988;2023-08-01T08:19:54;1.63;;;1.20;;
5823;SDS011;2938;52.254;12.988;2023-08-01T08:22:19;5.13;;;1.63;;
5823;SDS011;2938;52.254;12.988;2023-08-01T08:24:51;1.00;;;0.90;;
5823;SDS011;2938;52.254;12.988;2023-08-01T08:27:34;1.35;;;1.02;;
5823;SDS011;2938;52.254;12.988;2023-08-01T08:30:25;2.13;;;1.33;;
5823;SDS011;2938;52.254;12.988;2023-08-01T08:33:22;2.78;;;1.13;;
5823;SDS011;2938;52.254;12.988;2023-08-01T08:35:59;3.22;;;1.02;;
5823;SDS011;2938;52.254;12.988;2023-08-01T08:38:30;4.38;;;1.33;;
5823;SDS011;2938;52.254;12.988;2023-08-01T08:41:26;3.35;;;1.45;;
5823;SDS011;2938;52.254;12.988;2023-08-01T08:47:09;5.63;;;1.02;;
5823;SDS011;2938;52.254;12.988;2023-08-01T09:03:17;1.05;;;0.98;;
5823;SDS011;2938;52.254;12.988;2023-08-01T09:08:55;1.52;;;1.02;;
5823;SDS011;2938;52.254;12.988;2023-08-01T09:11:25;2.30;;;1.67;;
5823;SDS011;2938;52.254;12.988;2023-08-01T09:17:18;2.90;;;1.67;;
5823;SDS011;2938;52.254;12.988;2023-08-01T09:27:02;1.40;;;1.30;;
5823;SDS011;2938;52.254;12.988;2023-08-01T09:29:48;8.95;;;1.52;;
5823;SDS011;2938;52.254;12.988;2023-08-01T11:36:11;6.80;;;3.58;;
5823;SDS011;2938;52.254;12.988;2023-08-01T11:45:22;10.52;;;4.53;;
5823;SDS011;2938;52.254;12.988;2023-08-01T11:48:17;5.93;;;3.25;;
5823;SDS011;2938;52.254;12.988;2023-08-01T11:50:58;7.20;;;3.90;;
5823;SDS011;2938;52.254;12.988;2023-08-01T11:53:45;7.88;;;4.40;;
5823;SDS011;2938;52.254;12.988;2023-08-01T11:56:23;5.32;;;3.83;;
5823;SDS011;2938;52.254;12.988;2023-08-01T11:58:53;4.47;;;3.83;;
5823;SDS011;2938;52.254;12.988;2023-08-01T12:01:42;5.35;;;3.83;;
5823;SDS011;2938;52.254;12.988;2023-08-01T12:04:31;6.18;;;4.03;;
5823;SDS011;2938;52.254;12.988;2023-08-01T12:11:16;12.63;;;5.68;;
5823;SDS011;2938;52.254;12.988;2023-08-01T12:29:40;5.57;;;3.38;;
5823;SDS011;2938;52.254;12.988;2023-08-01T12:32:31;4.15;;;3.75;;
5823;SDS011;2938;52.254;12.988;2023-08-01T15:23:59;5.07;;;2.67;;
5823;SDS011;2938;52.254;12.988;2023-08-01T15:29:45;11.52;;;4.35;;
5823;SDS011;2938;52.254;12.988;2023-08-01T15:32:14;9.50;;;2.88;;
5823;SDS011;2938;52.254;12.988;2023-08-01T15:34:39;4.07;;;2.25;;
5823;SDS011;2938;52.254;12.988;2023-08-01T15:37:09;6.05;;;3.25;;
5823;SDS011;2938;52.254;12.988;2023-08-01T15:39:34;5.07;;;2.83;;
5823;SDS011;2938;52.254;12.988;2023-08-01T15:42:03;7.53;;;2.80;;
5823;SDS011;2938;52.254;12.988;2023-08-01T15:44:29;10.00;;;4.72;;
5823;SDS011;2938;52.254;12.988;2023-08-01T15:46:55;4.07;;;2.70;;
5823;SDS011;2938;52.254;12.988;2023-08-01T15:49:28;4.38;;;3.45;;
5823;SDS011;2938;52.254;12.988;2023-08-01T15:51:53;3.22;;;2.40;;
5823;SDS011;2938;52.254;12.988;2023-08-01T15:54:21;7.07;;;2.22;;
5823;SDS011;2938;52.254;12.988;2023-08-01T15:56:46;3.72;;;2.55;;
5823;SDS011;2938;52.254;12.988;2023-08-01T15:59:12;7.20;;;3.03;;
5823;SDS011;2938;52.254;12.988;2023-08-01T16:01:37;3.15;;;2.35;;
5823;SDS011;2938;52.254;12.988;2023-08-01T16:04:03;3.13;;;2.40;;
5823;SDS011;2938;52.254;12.988;2023-08-01T16:06:28;3.42;;;2.65;;
5823;SDS011;2938;52.254;12.988;2023-08-01T16:08:56;4.57;;;2.50;;
5823;SDS011;2938;52.254;12.988;2023-08-01T16:12:02;2.72;;;1.98;;
5823;SDS011;2938;52.254;12.988;2023-08-01T16:15:01;9.32;;;2.50;;
5823;SDS011;2938;52.254;12.988;2023-08-01T16:21:47;5.72;;;2.38;;
5823;SDS011;2938;52.254;12.988;2023-08-01T16:24:21;2.45;;;1.98;;
5823;SDS011;2938;52.254;12.988;2023-08-01T16:27:10;3.97;;;2.15;;
5823;SDS011;2938;52.254;12.988;2023-08-01T16:30:04;5.40;;;2.08;;
5823;SDS011;2938;52.254;12.988;2023-08-01T16:32:48;3.95;;;2.60;;
5823;SDS011;2938;52.254;12.988;2023-08-01T16:35:18;7.70;;;2.50;;
5823;SDS011;2938;52.254;12.988;2023-08-01T16:40:45;6.82;;;2.97;;
5823;SDS011;2938;52.254;12.988;2023-08-01T16:43:22;2.42;;;2.20;;
5823;SDS011;2938;52.254;12.988;2023-08-01T16:59:11;4.22;;;2.40;;
5823;SDS011;2938;52.254;12.988;2023-08-01T17:09:13;8.85;;;2.33;;
5823;SDS011;2938;52.254;12.988;2023-08-01T17:12:12;6.95;;;2.72;;
5823;SDS011;2938;52.254;12.988;2023-08-01T17:14:41;3.88;;;2.67;;
5823;SDS011;2938;52.254;12.988;2023-08-01T17:17:06;18.45;;;3.03;;
5823;SDS011;2938;52.254;12.988;2023-08-01T17:19:33;2.90;;;2.15;;
5823;SDS011;2938;52.254;12.988;2023-08-01T17:22:01;6.47;;;2.58;;
5823;SDS011;2938;52.254;12.988;2023-08-01T17:24:34;7.60;;;2.25;;
5823;SDS011;2938;52.254;12.988;2023-08-01T17:27:02;3.65;;;2.00;;
5823;SDS011;2938;52.254;12.988;2023-08-01T17:29:29;2.08;;;1.63;;
5823;SDS011;2938;52.254;12.988;2023-08-01T17:31:54;1.88;;;1.50;;
5823;SDS011;2938;52.254;12.988;2023-08-01T17:34:19;7.68;;;2.33;;
5823;SDS011;2938;52.254;12.988;2023-08-01T17:36:44;1.63;;;1.37;;
5823;SDS011;2938;52.254;12.988;2023-08-01T17:39:22;1.87;;;1.53;;
5823;SDS011;2938;52.254;12.988;2023-08-01T17:41:47;2.65;;;1.40;;
5823;SDS011;2938;52.254;12.988;2023-08-01T17:44:18;2.53;;;1.50;;
5823;SDS011;2938;52.254;12.988;2023-08-01T17:46:43;3.25;;;1.40;;
5823;SDS011;2938;52.254;12.988;2023-08-01T17:49:08;3.60;;;1.58;;
5823;SDS011;2938;52.254;12.988;2023-08-01T17:51:34;1.60;;;1.30;;
5823;SDS011;2938;52.254;12.988;2023-08-01T17:53:59;4.40;;;1.40;;
5823;SDS011;2938;52.254;12.988;2023-08-01T17:56:27;3.42;;;1.70;;
5823;SDS011;2938;52.254;12.988;2023-08-01T17:58:52;3.22;;;1.92;;
5823;SDS011;2938;52.254;12.988;2023-08-01T18:01:17;4.40;;;2.00;;
5823;SDS011;2938;52.254;12.988;2023-08-01T18:03:43;10.95;;;2.42;;
5823;SDS011;2938;52.254;12.988;2023-08-01T18:06:10;6.00;;;2.22;;
5823;SDS011;2938;52.254;12.988;2023-08-01T18:08:39;9.57;;;2.70;;
5823;SDS011;2938;52.254;12.988;2023-08-01T18:11:11;6.13;;;2.25;;
5823;SDS011;2938;52.254;12.988;2023-08-01T18:13:38;4.65;;;2.13;;
5823;SDS011;2938;52.254;12.988;2023-08-01T18:16:07;3.60;;;2.15;;
5823;SDS011;2938;52.254;12.988;2023-08-01T18:18:36;3.95;;;2.10;;
5823;SDS011;2938;52.254;12.988;2023-08-01T18:21:03;3.63;;;1.60;;
5823;SDS011;2938;52.254;12.988;2023-08-01T18:23:35;3.58;;;1.77;;
5823;SDS011;2938;52.254;12.988;2023-08-01T18:26:01;3.15;;;1.98;;
5823;SDS011;2938;52.254;12.988;2023-08-01T18:28:27;12.30;;;2.10;;
5823;SDS011;2938;52.254;12.988;2023-08-01T18:30:52;4.15;;;1.90;;
5823;SDS011;2938;52.254;12.988;2023-08-01T18:33:20;3.20;;;1.85;;
5823;SDS011;2938;52.254;12.988;2023-08-01T18:35:45;2.42;;;1.60;;
5823;SDS011;2938;52.254;12.988;2023-08-01T18:38:14;3.45;;;1.42;;
5823;SDS011;2938;52.254;12.988;2023-08-01T18:40:39;5.65;;;1.67;;
5823;SDS011;2938;52.254;12.988;2023-08-01T18:43:09;3.80;;;1.92;;
5823;SDS011;2938;52.254;12.988;2023-08-01T18:45:58;5.25;;;1.50;;
5823;SDS011;2938;52.254;12.988;2023-08-01T18:48:38;5.83;;;2.60;;
5823;SDS011;2938;52.254;12.988;2023-08-01T18:54:00;3.50;;;1.60;;
5823;SDS011;2938;52.254;12.988;2023-08-01T18:56:53;3.67;;;2.30;;
5823;SDS011;2938;52.254;12.988;2023-08-01T18:59:40;2.20;;;1.65;;
5823;SDS011;2938;52.254;12.988;2023-08-01T19:02:39;5.68;;;1.80;;
5823;SDS011;2938;52.254;12.988;2023-08-01T19:05:23;6.05;;;2.00;;
5823;SDS011;2938;52.254;12.988;2023-08-01T19:07:58;6.90;;;2.03;;
5823;SDS011;2938;52.254;12.988;2023-08-01T19:10:31;2.65;;;1.85;;
5823;SDS011;2938;52.254;12.988;2023-08-01T19:13:07;6.43;;;3.10;;
5823;SDS011;2938;52.254;12.988;2023-08-01T19:15:37;3.97;;;2.08;;
5823;SDS011;2938;52.254;12.988;2023-08-01T19:18:05;7.03;;;2.75;;
5823;SDS011;2938;52.254;12.988;2023-08-01T19:20:40;9.15;;;3.55;;
5823;SDS011;2938;52.254;12.988;2023-08-01T19:23:06;3.17;;;2.42;;
5823;SDS011;2938;52.254;12.988;2023-08-01T19:25:31;5.63;;;2.17;;
5823;SDS011;2938;52.254;12.988;2023-08-01T19:27:56;3.40;;;2.38;;
5823;SDS011;2938;52.254;12.988;2023-08-01T19:30:22;3.00;;;2.05;;
5823;SDS011;2938;52.254;12.988;2023-08-01T19:32:47;4.30;;;1.90;;
5823;SDS011;2938;52.254;12.988;2023-08-01T19:35:12;3.45;;;1.90;;
5823;SDS011;2938;52.254;12.988;2023-08-01T19:37:38;2.35;;;2.13;;
5823;SDS011;2938;52.254;12.988;2023-08-01T19:40:03;3.40;;;1.65;;
5823;SDS011;2938;52.254;12.988;2023-08-01T19:42:32;4.80;;;2.45;;
5823;SDS011;2938;52.254;12.988;2023-08-01T19:44:57;3.75;;;2.40;;
5823;SDS011;2938;52.254;12.988;2023-08-01T19:47:25;4.25;;;2.70;;
5823;SDS011;2938;52.254;12.988;2023-08-01T19:49:50;5.40;;;2.47;;
5823;SDS011;2938;52.254;12.988;2023-08-01T19:52:16;4.10;;;2.50;;
5823;SDS011;2938;52.254;12.988;2023-08-01T19:54:44;12.55;;;3.50;;
5823;SDS011;2938;52.254;12.988;2023-08-01T19:57:09;4.78;;;2.60;;
5823;SDS011;2938;52.254;12.988;2023-08-01T19:59:34;5.43;;;2.50;;
5823;SDS011;2938;52.254;12.988;2023-08-01T20:02:00;5.30;;;2.25;;
5823;SDS011;2938;52.254;12.988;2023-08-01T20:04:25;3.35;;;2.53;;
5823;SDS011;2938;52.254;12.988;2023-08-01T20:06:53;8.25;;;2.53;;
5823;SDS011;2938;52.254;12.988;2023-08-01T20:09:18;5.55;;;2.83;;
5823;SDS011;2938;52.254;12.988;2023-08-01T20:11:46;7.03;;;2.28;;
5823;SDS011;2938;52.254;12.988;2023-08-01T20:14:11;3.05;;;2.10;;
5823;SDS011;2938;52.254;12.988;2023-08-01T20:16:39;2.50;;;2.08;;
5823;SDS011;2938;52.254;12.988;2023-08-01T20:19:05;2.95;;;2.40;;
5823;SDS011;2938;52.254;12.988;2023-08-01T20:21:30;4.93;;;2.38;;
5823;SDS011;2938;52.254;12.988;2023-08-01T20:23:55;6.43;;;2.53;;
5823;SDS011;2938;52.254;12.988;2023-08-01T20:26:20;3.38;;;2.25;;
5823;SDS011;2938;52.254;12.988;2023-08-01T20:28:48;2.90;;;2.47;;
5823;SDS011;2938;52.254;12.988;2023-08-01T20:31:14;3.60;;;2.33;;
5823;SDS011;2938;52.254;12.988;2023-08-01T20:33:39;4.05;;;2.03;;
5823;SDS011;2938;52.254;12.988;2023-08-01T20:36:04;11.10;;;1.98;;
5823;SDS011;2938;52.254;12.988;2023-08-01T20:38:30;4.88;;;2.63;;
5823;SDS011;2938;52.254;12.988;2023-08-01T20:40:55;2.80;;;2.25;;
5823;SDS011;2938;52.254;12.988;2023-08-01T20:43:21;2.15;;;1.77;;
5823;SDS011;2938;52.254;12.988;2023-08-01T20:45:47;4.25;;;2.40;;
5823;SDS011;2938;52.254;12.988;2023-08-01T20:48:14;3.47;;;2.22;;
5823;SDS011;2938;52.254;12.988;2023-08-01T20:50:40;4.10;;;2.63;;
5823;SDS011;2938;52.254;12.988;2023-08-01T20:53:05;2.67;;;2.00;;
5823;SDS011;2938;52.254;12.988;2023-08-01T20:55:30;3.53;;;2.00;;
5823;SDS011;2938;52.254;12.988;2023-08-01T20:57:56;2.63;;;2.22;;
5823;SDS011;2938;52.254;12.988;2023-08-01T21:00:21;4.25;;;2.63;;
5823;SDS011;2938;52.254;12.988;2023-08-01T21:02:49;4.30;;;2.22;;
5823;SDS011;2938;52.254;12.988;2023-08-01T21:05:15;6.72;;;2.67;;
5823;SDS011;2938;52.254;12.988;2023-08-01T21:07:40;5.68;;;2.78;;
5823;SDS011;2938;52.254;12.988;2023-08-01T21:10:05;2.13;;;1.90;;
5823;SDS011;2938;52.254;12.988;2023-08-01T21:12:32;5.50;;;2.20;;
5823;SDS011;2938;52.254;12.988;2023-08-01T21:14:57;4.63;;;2.20;;
5823;SDS011;2938;52.254;12.988;2023-08-01T21:17:25;4.50;;;2.35;;
5823;SDS011;2938;52.254;12.988;2023-08-01T21:19:50;5.65;;;2.55;;
5823;SDS011;2938;52.254;12.988;2023-08-01T21:22:18;4.03;;;2.20;;
5823;SDS011;2938;52.254;12.988;2023-08-01T21:24:43;5.90;;;2.40;;
5823;SDS011;2938;52.254;12.988;2023-08-01T21:27:08;2.50;;;1.90;;
5823;SDS011;2938;52.254;12.988;2023-08-01T21:29:36;4.57;;;2.75;;
5823;SDS011;2938;52.254;12.988;2023-08-01T21:32:01;5.45;;;2.45;;
5823;SDS011;2938;52.254;12.988;2023-08-01T21:34:26;7.05;;;2.97;;
5823;SDS011;2938;52.254;12.988;2023-08-01T21:36:52;9.38;;;2.63;;
5823;SDS011;2938;52.254;12.988;2023-08-01T21:39:17;2.30;;;2.10;;
5823;SDS011;2938;52.254;12.988;2023-08-01T21:41:42;3.03;;;2.65;;
5823;SDS011;2938;52.254;12.988;2023-08-01T21:44:08;4.88;;;2.72;;
5823;SDS011;2938;52.254;12.988;2023-08-01T21:46:33;4.90;;;2.58;;
5823;SDS011;2938;52.254;12.988;2023-08-01T21:48:58;3.60;;;2.35;;
5823;SDS011;2938;52.254;12.988;2023-08-01T21:51:24;4.13;;;2.30;;
5823;SDS011;2938;52.254;12.988;2023-08-01T21:53:49;8.98;;;2.47;;
5823;SDS011;2938;52.254;12.988;2023-08-01T21:56:15;5.90;;;2.67;;
5823;SDS011;2938;52.254;12.988;2023-08-01T21:58:40;5.53;;;2.90;;
5823;SDS011;2938;52.254;12.988;2023-08-01T22:01:05;3.83;;;2.35;;
5823;SDS011;2938;52.254;12.988;2023-08-01T22:03:31;6.93;;;3.15;;
5823;SDS011;2938;52.254;12.988;2023-08-01T22:05:56;3.03;;;2.35;;
5823;SDS011;2938;52.254;12.988;2023-08-01T22:08:22;5.78;;;2.28;;
5823;SDS011;2938;52.254;12.988;2023-08-01T22:10:54;9.18;;;2.95;;
5823;SDS011;2938;52.254;12.988;2023-08-01T22:13:23;6.25;;;2.17;;
5823;SDS011;2938;52.254;12.988;2023-08-01T22:15:48;7.40;;;2.92;;
5823;SDS011;2938;52.254;12.988;2023-08-01T22:18:15;6.80;;;3.47;;
5823;SDS011;2938;52.254;12.988;2023-08-01T22:20:53;7.15;;;2.90;;
5823;SDS011;2938;52.254;12.988;2023-08-01T22:23:19;5.85;;;2.80;;
5823;SDS011;2938;52.254;12.988;2023-08-01T22:25:45;4.32;;;2.20;;
5823;SDS011;2938;52.254;12.988;2023-08-01T22:28:12;1.92;;;1.80;;
5823;SDS011;2938;52.254;12.988;2023-08-01T22:30:37;5.45;;;2.60;;
5823;SDS011;2938;52.254;12.988;2023-08-01T22:33:03;2.38;;;2.17;;
5823;SDS011;2938;52.254;12.988;2023-08-01T22:35:28;7.13;;;2.47;;
5823;SDS011;2938;52.254;12.988;2023-08-01T22:37:54;6.25;;;2.20;;
5823;SDS011;2938;52.254;12.988;2023-08-01T22:40:19;3.25;;;2.58;;
5823;SDS011;2938;52.254;12.988;2023-08-01T22:42:45;8.48;;;2.95;;
5823;SDS011;2938;52.254;12.988;2023-08-01T22:45:10;6.63;;;2.92;;
5823;SDS011;2938;52.254;12.988;2023-08-01T22:47:35;5.82;;;2.78;;
5823;SDS011;2938;52.254;12.988;2023-08-01T22:50:00;6.85;;;2.35;;
5823;SDS011;2938;52.254;12.988;2023-08-01T22:52:26;5.50;;;2.53;;
5823;SDS011;2938;52.254;12.988;2023-08-01T22:54:51;12.88;;;2.55;;
5823;SDS011;2938;52.254;12.988;2023-08-01T22:57:16;3.05;;;2.13;;
5823;SDS011;2938;52.254;12.988;2023-08-01T22:59:44;12.50;;;3.22;;
5823;SDS011;2938;52.254;12.988;2023-08-01T23:02:09;7.50;;;3.05;;
5823;SDS011;2938;52.254;12.988;2023-08-01T23:04:35;3.80;;;2.95;;
5823;SDS011;2938;52.254;12.988;2023-08-01T23:07:00;5.20;;;3.72;;
5823;SDS011;2938;52.254;12.988;2023-08-01T23:09:25;8.10;;;2.55;;
5823;SDS011;2938;52.254;12.988;2023-08-01T23:11:51;5.90;;;2.92;;
5823;SDS011;2938;52.254;12.988;2023-08-01T23:14:16;10.25;;;3.40;;
5823;SDS011;2938;52.254;12.988;2023-08-01T23:16:42;3.08;;;2.58;;
5823;SDS011;2938;52.254;12.988;2023-08-01T23:19:08;4.95;;;2.63;;
5823;SDS011;2938;52.254;12.988;2023-08-01T23:21:33;4.78;;;2.78;;
5823;SDS011;2938;52.254;12.988;2023-08-01T23:23:58;8.13;;;2.45;;
5823;SDS011;2938;52.254;12.988;2023-08-01T23:26:23;6.05;;;3.03;;
5823;SDS011;2938;52.254;12.988;2023-08-01T23:28:49;7.97;;;4.05;;
5823;SDS011;2938;52.254;12.988;2023-08-01T23:31:14;4.25;;;3.10;;
5823;SDS011;2938;52.254;12.988;2023-08-01T23:33:40;6.38;;;3.45;;
5823;SDS011;2938;52.254;12.988;2023-08-01T23:36:06;9.70;;;2.92;;
5823;SDS011;2938;52.254;12.988;2023-08-01T23:38:31;8.27;;;3.03;;
5823;SDS011;2938;52.254;12.988;2023-08-01T23:40:57;8.80;;;3.38;;
5823;SDS011;2938;52.254;12.988;2023-08-01T23:43:22;7.60;;;3.30;;
5823;SDS011;2938;52.254;12.988;2023-08-01T23:45:48;10.57;;;3.25;;
5823;SDS011;2938;52.254;12.988;2023-08-01T23:48:14;10.70;;;2.92;;
5823;SDS011;2938;52.254;12.988;2023-08-01T23:50:39;8.02;;;3.47;;
5823;SDS011;2938;52.254;12.988;2023-08-01T23:53:05;8.10;;;2.50;;
5823;SDS011;2938;52.254;12.988;2023-08-01T23:55:30;4.13;;;2.88;;
5823;SDS011;2938;52.254;12.988;2023-08-01T23:57:55;6.20;;;3.65;;
